sensor_id;sensor_type;location;lat;lon;timestamp;temperature;humidity
29917;DHT22;16786;49.466;11.068;2023-02-19T00:01:46;9.40;99.90
29917;DHT22;16786;49.466;11.068;2023-02-19T00:04:18;9.40;99.90
29917;DHT22;16786;49.466;11.068;2023-02-19T00:06:47;9.40;99.90
29917;DHT22;16786;49.466;11.068;2023-02-19T00:09:16;9.40;99.90
29917;DHT22;16786;49.466;11.068;2023-02-19T00:11:44;9.30;99.90
29917;DHT22;16786;49.466;11.068;2023-02-19T00:14:18;9.30;99.90
29917;DHT22;16786;49.466;11.068;2023-02-19T00:16:46;9.30;99.90
29917;DHT22;16786;49.466;11.068;2023-02-19T00:19:16;9.20;99.90
29917;DHT22;16786;49.466;11.068;2023-02-19T00:21:44;9.20;99.90
29917;DHT22;16786;49.466;11.068;2023-02-19T00:24:12;9.20;99.90
29917;DHT22;16786;49.466;11.068;2023-02-19T00:26:40;9.10;99.90
29917;DHT22;16786;49.466;11.068;2023-02-19T00:29:12;9.10;99.90
29917;DHT22;16786;49.466;11.068;2023-02-19T00:31:41;9.10;99.90
29917;DHT22;16786;49.466;11.068;2023-02-19T00:34:10;9.10;99.90
29917;DHT22;16786;49.466;11.068;2023-02-19T00:36:39;9.00;99.90
29917;DHT22;16786;49.466;11.068;2023-02-19T00:39:09;8.90;99.90
29917;DHT22;16786;49.466;11.068;2023-02-19T00:41:37;8.90;99.90
29917;DHT22;16786;49.466;11.068;2023-02-19T00:44:06;8.80;99.90
29917;DHT22;16786;49.466;11.068;2023-02-19T00:46:36;8.80;99.90
29917;DHT22;16786;49.466;11.068;2023-02-19T00:49:05;8.80;99.90
29917;DHT22;16786;49.466;11.068;2023-02-19T00:51:35;8.70;99.90
29917;DHT22;16786;49.466;11.068;2023-02-19T00:54:04;8.70;99.90
29917;DHT22;16786;49.466;11.068;2023-02-19T00:56:31;8.70;99.90
29917;DHT22;16786;49.466;11.068;2023-02-19T00:58:59;8.70;99.90
29917;DHT22;16786;49.466;11.068;2023-02-19T01:01:26;8.70;99.90
29917;DHT22;16786;49.466;11.068;2023-02-19T01:03:54;8.70;99.90
29917;DHT22;16786;49.466;11.068;2023-02-19T01:06:22;8.70;99.90
29917;DHT22;16786;49.466;11.068;2023-02-19T01:08:49;8.60;99.90
29917;DHT22;16786;49.466;11.068;2023-02-19T01:11:17;8.60;99.90
29917;DHT22;16786;49.466;11.068;2023-02-19T01:13:44;8.60;99.90
29917;DHT22;16786;49.466;11.068;2023-02-19T01:16:18;8.60;99.90
29917;DHT22;16786;49.466;11.068;2023-02-19T01:18:46;8.60;99.90
29917;DHT22;16786;49.466;11.068;2023-02-19T01:21:17;8.50;99.90
29917;DHT22;16786;49.466;11.068;2023-02-19T01:23:46;8.50;99.90
29917;DHT22;16786;49.466;11.068;2023-02-19T01:26:16;8.40;99.90
29917;DHT22;16786;49.466;11.068;2023-02-19T01:28:45;8.40;99.90
29917;DHT22;16786;49.466;11.068;2023-02-19T01:31:17;8.50;99.90
29917;DHT22;16786;49.466;11.068;2023-02-19T01:33:54;8.50;99.90
29917;DHT22;16786;49.466;11.068;2023-02-19T01:36:21;8.50;99.90
29917;DHT22;16786;49.466;11.068;2023-02-19T01:38:49;8.50;99.90
29917;DHT22;16786;49.466;11.068;2023-02-19T01:41:19;8.50;99.90
29917;DHT22;16786;49.466;11.068;2023-02-19T01:46:33;8.60;99.90
29917;DHT22;16786;49.466;11.068;2023-02-19T01:51:37;8.60;99.90
29917;DHT22;16786;49.466;11.068;2023-02-19T01:54:06;8.50;99.90
29917;DHT22;16786;49.466;11.068;2023-02-19T01:56:36;8.50;99.90
29917;DHT22;16786;49.466;11.068;2023-02-19T01:59:05;8.40;99.90
29917;DHT22;16786;49.466;11.068;2023-02-19T02:01:36;8.50;99.90
29917;DHT22;16786;49.466;11.068;2023-02-19T02:04:05;8.40;99.90
29917;DHT22;16786;49.466;11.068;2023-02-19T02:06:54;8.40;99.90
29917;DHT22;16786;49.466;11.068;2023-02-19T02:09:27;8.40;99.90
29917;DHT22;16786;49.466;11.068;2023-02-19T02:12:14;8.40;99.90
29917;DHT22;16786;49.466;11.068;2023-02-19T02:14:44;8.40;99.90
29917;DHT22;16786;49.466;11.068;2023-02-19T02:17:27;8.50;99.90
29917;DHT22;16786;49.466;11.068;2023-02-19T02:20:35;8.40;99.90
29917;DHT22;16786;49.466;11.068;2023-02-19T02:28:52;8.50;99.90
29917;DHT22;16786;49.466;11.068;2023-02-19T02:31:38;8.50;99.90
29917;DHT22;16786;49.466;11.068;2023-02-19T02:34:13;8.50;99.90
29917;DHT22;16786;49.466;11.068;2023-02-19T02:36:44;8.50;99.90
29917;DHT22;16786;49.466;11.068;2023-02-19T02:39:16;8.50;99.90
29917;DHT22;16786;49.466;11.068;2023-02-19T02:41:54;8.50;99.90
29917;DHT22;16786;49.466;11.068;2023-02-19T02:44:44;8.50;99.90
29917;DHT22;16786;49.466;11.068;2023-02-19T02:47:36;8.50;99.90
29917;DHT22;16786;49.466;11.068;2023-02-19T02:50:12;8.50;99.90
29917;DHT22;16786;49.466;11.068;2023-02-19T02:52:43;8.50;99.90
29917;DHT22;16786;49.466;11.068;2023-02-19T02:55:34;8.50;99.90
29917;DHT22;16786;49.466;11.068;2023-02-19T02:58:03;8.50;99.90
29917;DHT22;16786;49.466;11.068;2023-02-19T03:00:31;8.50;99.90
29917;DHT22;16786;49.466;11.068;2023-02-19T03:03:20;8.50;99.90
29917;DHT22;16786;49.466;11.068;2023-02-19T03:05:51;8.50;99.90
29917;DHT22;16786;49.466;11.068;2023-02-19T03:08:29;8.50;99.90
29917;DHT22;16786;49.466;11.068;2023-02-19T03:11:04;8.50;99.90
29917;DHT22;16786;49.466;11.068;2023-02-19T03:14:19;8.60;99.90
29917;DHT22;16786;49.466;11.068;2023-02-19T03:17:38;8.50;99.90
29917;DHT22;16786;49.466;11.068;2023-02-19T03:20:26;8.60;99.90
29917;DHT22;16786;49.466;11.068;2023-02-19T03:22:55;8.60;99.90
29917;DHT22;16786;49.466;11.068;2023-02-19T03:25:30;8.70;99.90
29917;DHT22;16786;49.466;11.068;2023-02-19T03:28:31;8.60;99.90
29917;DHT22;16786;49.466;11.068;2023-02-19T03:31:30;8.70;99.90
29917;DHT22;16786;49.466;11.068;2023-02-19T03:34:03;8.70;99.90
29917;DHT22;16786;49.466;11.068;2023-02-19T03:36:39;8.70;99.90
29917;DHT22;16786;49.466;11.068;2023-02-19T03:39:11;8.70;99.90
29917;DHT22;16786;49.466;11.068;2023-02-19T03:42:07;8.70;99.90
29917;DHT22;16786;49.466;11.068;2023-02-19T03:44:41;8.70;99.90
29917;DHT22;16786;49.466;11.068;2023-02-19T03:55:21;8.70;99.90
29917;DHT22;16786;49.466;11.068;2023-02-19T03:57:57;8.70;99.90
29917;DHT22;16786;49.466;11.068;2023-02-19T04:03:31;8.70;99.90
29917;DHT22;16786;49.466;11.068;2023-02-19T04:06:02;8.70;99.90
29917;DHT22;16786;49.466;11.068;2023-02-19T04:08:33;8.70;99.90
29917;DHT22;16786;49.466;11.068;2023-02-19T04:11:05;8.80;99.90
29917;DHT22;16786;49.466;11.068;2023-02-19T04:13:49;8.80;99.90
29917;DHT22;16786;49.466;11.068;2023-02-19T04:16:21;8.70;99.90
29917;DHT22;16786;49.466;11.068;2023-02-19T04:18:53;8.80;99.90
29917;DHT22;16786;49.466;11.068;2023-02-19T04:21:22;8.80;99.90
29917;DHT22;16786;49.466;11.068;2023-02-19T04:23:50;8.80;99.90
29917;DHT22;16786;49.466;11.068;2023-02-19T04:26:20;8.80;99.90
29917;DHT22;16786;49.466;11.068;2023-02-19T04:28:48;8.80;99.90
29917;DHT22;16786;49.466;11.068;2023-02-19T04:31:16;8.70;99.90
29917;DHT22;16786;49.466;11.068;2023-02-19T04:33:43;8.80;99.90
29917;DHT22;16786;49.466;11.068;2023-02-19T04:36:10;8.80;99.90
29917;DHT22;16786;49.466;11.068;2023-02-19T04:38:38;8.80;99.90
29917;DHT22;16786;49.466;11.068;2023-02-19T04:41:05;8.80;99.90
29917;DHT22;16786;49.466;11.068;2023-02-19T04:43:32;8.80;99.90
29917;DHT22;16786;49.466;11.068;2023-02-19T04:46:00;8.80;99.90
29917;DHT22;16786;49.466;11.068;2023-02-19T04:48:28;8.80;99.90
29917;DHT22;16786;49.466;11.068;2023-02-19T04:50:55;8.80;99.90
29917;DHT22;16786;49.466;11.068;2023-02-19T04:53:23;8.80;99.90
29917;DHT22;16786;49.466;11.068;2023-02-19T04:55:50;8.80;99.90
29917;DHT22;16786;49.466;11.068;2023-02-19T04:58:19;8.80;99.90
29917;DHT22;16786;49.466;11.068;2023-02-19T05:00:50;8.80;99.90
29917;DHT22;16786;49.466;11.068;2023-02-19T05:03:18;8.80;99.90
29917;DHT22;16786;49.466;11.068;2023-02-19T05:05:45;8.80;99.90
29917;DHT22;16786;49.466;11.068;2023-02-19T05:08:12;8.80;99.90
29917;DHT22;16786;49.466;11.068;2023-02-19T05:10:40;8.80;99.90
29917;DHT22;16786;49.466;11.068;2023-02-19T05:13:07;8.80;99.90
29917;DHT22;16786;49.466;11.068;2023-02-19T05:15:35;8.80;99.90
29917;DHT22;16786;49.466;11.068;2023-02-19T05:18:02;8.80;99.90
29917;DHT22;16786;49.466;11.068;2023-02-19T05:20:30;8.80;99.90
29917;DHT22;16786;49.466;11.068;2023-02-19T05:22:57;8.80;99.90
29917;DHT22;16786;49.466;11.068;2023-02-19T05:25:24;8.80;99.90
29917;DHT22;16786;49.466;11.068;2023-02-19T05:27:52;8.80;99.90
29917;DHT22;16786;49.466;11.068;2023-02-19T05:30:39;8.90;99.90
29917;DHT22;16786;49.466;11.068;2023-02-19T05:33:06;8.90;99.90
29917;DHT22;16786;49.466;11.068;2023-02-19T05:35:33;8.90;99.90
29917;DHT22;16786;49.466;11.068;2023-02-19T05:38:00;8.90;99.90
29917;DHT22;16786;49.466;11.068;2023-02-19T05:40:28;9.00;99.90
29917;DHT22;16786;49.466;11.068;2023-02-19T05:42:55;9.00;99.90
29917;DHT22;16786;49.466;11.068;2023-02-19T05:45:22;8.90;99.90
29917;DHT22;16786;49.466;11.068;2023-02-19T05:47:49;8.90;99.90
29917;DHT22;16786;49.466;11.068;2023-02-19T05:50:17;9.00;99.90
29917;DHT22;16786;49.466;11.068;2023-02-19T05:52:44;9.00;99.90
29917;DHT22;16786;49.466;11.068;2023-02-19T05:55:12;9.00;99.90
29917;DHT22;16786;49.466;11.068;2023-02-19T05:57:40;8.90;99.90
29917;DHT22;16786;49.466;11.068;2023-02-19T06:00:17;9.00;99.90
29917;DHT22;16786;49.466;11.068;2023-02-19T06:02:45;9.00;99.90
29917;DHT22;16786;49.466;11.068;2023-02-19T06:05:13;8.90;99.90
29917;DHT22;16786;49.466;11.068;2023-02-19T06:07:40;9.00;99.90
29917;DHT22;16786;49.466;11.068;2023-02-19T06:10:09;9.00;99.90
29917;DHT22;16786;49.466;11.068;2023-02-19T06:12:38;9.00;99.90
29917;DHT22;16786;49.466;11.068;2023-02-19T06:15:05;9.00;99.90
29917;DHT22;16786;49.466;11.068;2023-02-19T06:17:33;9.00;99.90
29917;DHT22;16786;49.466;11.068;2023-02-19T06:20:01;8.90;99.90
29917;DHT22;16786;49.466;11.068;2023-02-19T06:22:28;8.80;99.90
29917;DHT22;16786;49.466;11.068;2023-02-19T06:24:55;8.80;99.90
29917;DHT22;16786;49.466;11.068;2023-02-19T06:27:23;8.80;99.90
29917;DHT22;16786;49.466;11.068;2023-02-19T06:29:50;8.80;99.90
29917;DHT22;16786;49.466;11.068;2023-02-19T06:32:17;8.80;99.90
29917;DHT22;16786;49.466;11.068;2023-02-19T06:34:45;8.70;99.90
29917;DHT22;16786;49.466;11.068;2023-02-19T06:37:12;8.80;99.90
29917;DHT22;16786;49.466;11.068;2023-02-19T06:39:39;8.80;99.90
29917;DHT22;16786;49.466;11.068;2023-02-19T06:42:06;8.70;99.90
29917;DHT22;16786;49.466;11.068;2023-02-19T06:44:34;8.80;99.90
29917;DHT22;16786;49.466;11.068;2023-02-19T06:47:01;8.80;99.90
29917;DHT22;16786;49.466;11.068;2023-02-19T06:49:28;8.80;99.90
29917;DHT22;16786;49.466;11.068;2023-02-19T06:51:55;8.80;99.90
29917;DHT22;16786;49.466;11.068;2023-02-19T06:54:23;8.80;99.90
29917;DHT22;16786;49.466;11.068;2023-02-19T06:56:51;8.80;99.90
29917;DHT22;16786;49.466;11.068;2023-02-19T06:59:18;8.80;99.90
29917;DHT22;16786;49.466;11.068;2023-02-19T07:01:46;8.90;99.90
29917;DHT22;16786;49.466;11.068;2023-02-19T07:04:13;8.90;99.90
29917;DHT22;16786;49.466;11.068;2023-02-19T07:06:42;8.90;99.90
29917;DHT22;16786;49.466;11.068;2023-02-19T07:09:10;8.90;99.90
29917;DHT22;16786;49.466;11.068;2023-02-19T07:11:38;8.90;99.90
29917;DHT22;16786;49.466;11.068;2023-02-19T07:14:07;8.90;99.90
29917;DHT22;16786;49.466;11.068;2023-02-19T07:16:35;8.90;99.90
29917;DHT22;16786;49.466;11.068;2023-02-19T07:19:02;9.00;99.90
29917;DHT22;16786;49.466;11.068;2023-02-19T07:21:30;9.00;99.90
29917;DHT22;16786;49.466;11.068;2023-02-19T07:23:57;9.10;99.90
29917;DHT22;16786;49.466;11.068;2023-02-19T07:26:24;9.10;99.90
29917;DHT22;16786;49.466;11.068;2023-02-19T07:28:52;9.20;99.90
29917;DHT22;16786;49.466;11.068;2023-02-19T07:31:21;9.20;99.90
29917;DHT22;16786;49.466;11.068;2023-02-19T07:33:49;9.20;99.90
29917;DHT22;16786;49.466;11.068;2023-02-19T07:36:18;9.30;99.90
29917;DHT22;16786;49.466;11.068;2023-02-19T07:38:46;9.40;99.90
29917;DHT22;16786;49.466;11.068;2023-02-19T07:41:13;9.40;99.90
29917;DHT22;16786;49.466;11.068;2023-02-19T07:43:40;9.40;99.90
29917;DHT22;16786;49.466;11.068;2023-02-19T07:46:10;9.30;99.90
29917;DHT22;16786;49.466;11.068;2023-02-19T07:48:39;9.40;99.90
29917;DHT22;16786;49.466;11.068;2023-02-19T07:51:10;9.40;99.90
29917;DHT22;16786;49.466;11.068;2023-02-19T07:53:38;9.40;99.90
29917;DHT22;16786;49.466;11.068;2023-02-19T07:56:07;9.50;99.90
29917;DHT22;16786;49.466;11.068;2023-02-19T07:58:36;9.50;99.90
29917;DHT22;16786;49.466;11.068;2023-02-19T08:01:20;9.50;99.90
29917;DHT22;16786;49.466;11.068;2023-02-19T08:04:06;9.50;99.90
29917;DHT22;16786;49.466;11.068;2023-02-19T08:06:33;9.60;99.90
29917;DHT22;16786;49.466;11.068;2023-02-19T08:09:01;9.60;99.90
29917;DHT22;16786;49.466;11.068;2023-02-19T08:11:29;9.60;99.90
29917;DHT22;16786;49.466;11.068;2023-02-19T08:14:15;9.60;99.90
29917;DHT22;16786;49.466;11.068;2023-02-19T08:16:49;9.70;99.90
29917;DHT22;16786;49.466;11.068;2023-02-19T08:19:17;9.70;99.90
29917;DHT22;16786;49.466;11.068;2023-02-19T08:21:44;9.70;99.90
29917;DHT22;16786;49.466;11.068;2023-02-19T08:24:12;9.70;99.90
29917;DHT22;16786;49.466;11.068;2023-02-19T08:26:39;9.70;99.90
29917;DHT22;16786;49.466;11.068;2023-02-19T08:29:06;9.70;99.90
29917;DHT22;16786;49.466;11.068;2023-02-19T08:31:34;9.70;99.90
29917;DHT22;16786;49.466;11.068;2023-02-19T08:34:01;9.80;99.90
29917;DHT22;16786;49.466;11.068;2023-02-19T08:36:29;9.80;99.90
29917;DHT22;16786;49.466;11.068;2023-02-19T08:38:56;9.80;99.90
29917;DHT22;16786;49.466;11.068;2023-02-19T08:41:24;9.80;99.90
29917;DHT22;16786;49.466;11.068;2023-02-19T08:43:51;9.90;99.90
29917;DHT22;16786;49.466;11.068;2023-02-19T08:46:18;9.90;99.90
29917;DHT22;16786;49.466;11.068;2023-02-19T08:48:45;9.80;99.90
29917;DHT22;16786;49.466;11.068;2023-02-19T08:51:13;9.80;99.90
29917;DHT22;16786;49.466;11.068;2023-02-19T08:53:40;9.80;99.90
29917;DHT22;16786;49.466;11.068;2023-02-19T08:56:13;9.80;99.90
29917;DHT22;16786;49.466;11.068;2023-02-19T08:58:42;9.90;99.90
29917;DHT22;16786;49.466;11.068;2023-02-19T09:01:11;9.80;99.90
29917;DHT22;16786;49.466;11.068;2023-02-19T09:03:40;9.90;99.90
29917;DHT22;16786;49.466;11.068;2023-02-19T09:06:14;9.90;99.90
29917;DHT22;16786;49.466;11.068;2023-02-19T09:08:43;9.90;99.90
29917;DHT22;16786;49.466;11.068;2023-02-19T09:11:10;10.00;99.90
29917;DHT22;16786;49.466;11.068;2023-02-19T09:13:38;10.00;99.90
29917;DHT22;16786;49.466;11.068;2023-02-19T09:16:06;10.10;99.90
29917;DHT22;16786;49.466;11.068;2023-02-19T09:18:33;10.20;99.90
29917;DHT22;16786;49.466;11.068;2023-02-19T09:21:04;10.20;99.90
29917;DHT22;16786;49.466;11.068;2023-02-19T09:23:32;10.30;99.90
29917;DHT22;16786;49.466;11.068;2023-02-19T09:26:00;10.30;99.90
29917;DHT22;16786;49.466;11.068;2023-02-19T09:28:30;10.40;99.90
29917;DHT22;16786;49.466;11.068;2023-02-19T09:31:05;10.40;99.90
29917;DHT22;16786;49.466;11.068;2023-02-19T09:33:33;10.40;99.90
29917;DHT22;16786;49.466;11.068;2023-02-19T09:36:01;10.20;99.90
29917;DHT22;16786;49.466;11.068;2023-02-19T09:38:29;10.20;99.90
29917;DHT22;16786;49.466;11.068;2023-02-19T09:40:57;10.20;99.90
29917;DHT22;16786;49.466;11.068;2023-02-19T09:43:27;10.20;99.90
29917;DHT22;16786;49.466;11.068;2023-02-19T09:46:03;10.20;99.90
29917;DHT22;16786;49.466;11.068;2023-02-19T09:48:33;10.30;99.90
29917;DHT22;16786;49.466;11.068;2023-02-19T09:51:01;10.40;99.90
29917;DHT22;16786;49.466;11.068;2023-02-19T09:53:36;10.30;99.90
29917;DHT22;16786;49.466;11.068;2023-02-19T09:56:06;10.30;99.90
29917;DHT22;16786;49.466;11.068;2023-02-19T09:58:42;10.30;99.90
29917;DHT22;16786;49.466;11.068;2023-02-19T10:01:12;10.20;99.90
29917;DHT22;16786;49.466;11.068;2023-02-19T10:03:43;10.10;99.90
29917;DHT22;16786;49.466;11.068;2023-02-19T10:08:45;10.10;99.90
29917;DHT22;16786;49.466;11.068;2023-02-19T10:11:13;10.00;99.90
29917;DHT22;16786;49.466;11.068;2023-02-19T10:13:51;9.90;99.90
29917;DHT22;16786;49.466;11.068;2023-02-19T10:16:23;9.90;99.90
29917;DHT22;16786;49.466;11.068;2023-02-19T10:18:51;10.00;99.90
29917;DHT22;16786;49.466;11.068;2023-02-19T10:21:24;10.20;99.90
29917;DHT22;16786;49.466;11.068;2023-02-19T10:23:58;10.20;99.90
29917;DHT22;16786;49.466;11.068;2023-02-19T10:26:27;10.20;99.90
29917;DHT22;16786;49.466;11.068;2023-02-19T10:28:57;10.10;99.90
29917;DHT22;16786;49.466;11.068;2023-02-19T10:31:25;10.10;99.90
29917;DHT22;16786;49.466;11.068;2023-02-19T10:33:54;10.10;99.90
29917;DHT22;16786;49.466;11.068;2023-02-19T10:36:39;10.20;99.90
29917;DHT22;16786;49.466;11.068;2023-02-19T10:39:38;10.30;99.90
29917;DHT22;16786;49.466;11.068;2023-02-19T10:42:20;10.30;99.90
29917;DHT22;16786;49.466;11.068;2023-02-19T10:44:56;10.40;99.90
29917;DHT22;16786;49.466;11.068;2023-02-19T10:47:26;10.50;99.90
29917;DHT22;16786;49.466;11.068;2023-02-19T10:49:57;10.50;99.90
29917;DHT22;16786;49.466;11.068;2023-02-19T10:52:33;10.30;99.90
29917;DHT22;16786;49.466;11.068;2023-02-19T10:57:49;10.00;99.90
29917;DHT22;16786;49.466;11.068;2023-02-19T11:00:25;10.00;99.90
29917;DHT22;16786;49.466;11.068;2023-02-19T11:03:21;10.00;99.90
29917;DHT22;16786;49.466;11.068;2023-02-19T11:06:00;10.00;99.90
29917;DHT22;16786;49.466;11.068;2023-02-19T11:08:29;10.10;99.90
29917;DHT22;16786;49.466;11.068;2023-02-19T11:10:56;10.10;99.90
29917;DHT22;16786;49.466;11.068;2023-02-19T11:13:32;10.00;99.90
29917;DHT22;16786;49.466;11.068;2023-02-19T11:16:04;10.00;99.90
29917;DHT22;16786;49.466;11.068;2023-02-19T11:18:32;9.90;99.90
29917;DHT22;16786;49.466;11.068;2023-02-19T11:21:03;9.70;99.90
29917;DHT22;16786;49.466;11.068;2023-02-19T11:23:34;9.40;99.90
29917;DHT22;16786;49.466;11.068;2023-02-19T11:26:06;9.30;99.90
29917;DHT22;16786;49.466;11.068;2023-02-19T11:28:42;9.20;99.90
29917;DHT22;16786;49.466;11.068;2023-02-19T11:36:41;9.10;99.90
29917;DHT22;16786;49.466;11.068;2023-02-19T11:49:51;9.00;99.90
29917;DHT22;16786;49.466;11.068;2023-02-19T11:57:45;9.20;99.90
29917;DHT22;16786;49.466;11.068;2023-02-19T12:00:27;9.30;99.90
29917;DHT22;16786;49.466;11.068;2023-02-19T12:19:43;9.60;99.90
29917;DHT22;16786;49.466;11.068;2023-02-19T12:22:31;9.90;99.90
29917;DHT22;16786;49.466;11.068;2023-02-19T12:28:00;10.20;99.90
29917;DHT22;16786;49.466;11.068;2023-02-19T12:36:29;10.10;99.90
29917;DHT22;16786;49.466;11.068;2023-02-19T12:44:42;10.20;99.90
29917;DHT22;16786;49.466;11.068;2023-02-19T12:47:20;10.20;99.90
29917;DHT22;16786;49.466;11.068;2023-02-19T12:50:19;10.20;99.90
29917;DHT22;16786;49.466;11.068;2023-02-19T12:52:51;10.30;99.90
29917;DHT22;16786;49.466;11.068;2023-02-19T12:55:24;10.60;99.90
29917;DHT22;16786;49.466;11.068;2023-02-19T12:57:53;11.90;99.90
29917;DHT22;16786;49.466;11.068;2023-02-19T13:03:04;13.00;99.90
29917;DHT22;16786;49.466;11.068;2023-02-19T13:05:51;12.90;99.90
29917;DHT22;16786;49.466;11.068;2023-02-19T13:12:03;11.90;99.90
29917;DHT22;16786;49.466;11.068;2023-02-19T13:19:57;10.90;99.90
29917;DHT22;16786;49.466;11.068;2023-02-19T13:22:35;10.60;99.90
29917;DHT22;16786;49.466;11.068;2023-02-19T13:25:36;10.40;99.90
29917;DHT22;16786;49.466;11.068;2023-02-19T13:28:17;10.20;99.90
29917;DHT22;16786;49.466;11.068;2023-02-19T13:30:55;10.20;99.90
29917;DHT22;16786;49.466;11.068;2023-02-19T13:33:42;10.10;99.90
29917;DHT22;16786;49.466;11.068;2023-02-19T13:36:19;10.20;99.90
29917;DHT22;16786;49.466;11.068;2023-02-19T13:38:50;10.50;99.90
29917;DHT22;16786;49.466;11.068;2023-02-19T13:41:25;10.90;99.90
29917;DHT22;16786;49.466;11.068;2023-02-19T13:43:56;11.30;99.90
29917;DHT22;16786;49.466;11.068;2023-02-19T13:46:25;11.20;99.90
29917;DHT22;16786;49.466;11.068;2023-02-19T13:51:54;11.50;99.90
29917;DHT22;16786;49.466;11.068;2023-02-19T13:59:50;11.00;99.90
29917;DHT22;16786;49.466;11.068;2023-02-19T14:04:54;10.70;99.90
29917;DHT22;16786;49.466;11.068;2023-02-19T14:07:50;10.70;99.90
29917;DHT22;16786;49.466;11.068;2023-02-19T14:10:51;10.70;99.90
29917;DHT22;16786;49.466;11.068;2023-02-19T14:16:30;10.90;99.90
29917;DHT22;16786;49.466;11.068;2023-02-19T14:18:58;11.00;99.90
29917;DHT22;16786;49.466;11.068;2023-02-19T14:21:35;10.70;99.90
29917;DHT22;16786;49.466;11.068;2023-02-19T14:24:03;10.90;99.90
29917;DHT22;16786;49.466;11.068;2023-02-19T14:26:32;10.70;99.90
29917;DHT22;16786;49.466;11.068;2023-02-19T14:29:00;10.70;99.90
29917;DHT22;16786;49.466;11.068;2023-02-19T14:31:30;10.60;99.90
29917;DHT22;16786;49.466;11.068;2023-02-19T14:34:02;10.60;99.90
29917;DHT22;16786;49.466;11.068;2023-02-19T14:36:43;10.40;99.90
29917;DHT22;16786;49.466;11.068;2023-02-19T14:39:29;10.30;99.90
29917;DHT22;16786;49.466;11.068;2023-02-19T14:42:21;10.40;99.90
29917;DHT22;16786;49.466;11.068;2023-02-19T14:44:55;10.50;99.90
29917;DHT22;16786;49.466;11.068;2023-02-19T14:47:25;10.80;99.90
29917;DHT22;16786;49.466;11.068;2023-02-19T14:50:08;10.90;99.90
29917;DHT22;16786;49.466;11.068;2023-02-19T14:52:42;11.50;99.90
29917;DHT22;16786;49.466;11.068;2023-02-19T14:55:28;11.90;99.90
29917;DHT22;16786;49.466;11.068;2023-02-19T14:57:58;12.90;99.90
29917;DHT22;16786;49.466;11.068;2023-02-19T15:00:28;13.70;99.90
29917;DHT22;16786;49.466;11.068;2023-02-19T15:02:56;15.10;99.90
29917;DHT22;16786;49.466;11.068;2023-02-19T15:05:28;16.30;99.90
29917;DHT22;16786;49.466;11.068;2023-02-19T15:07:59;16.80;99.90
29917;DHT22;16786;49.466;11.068;2023-02-19T15:10:29;17.00;99.90
29917;DHT22;16786;49.466;11.068;2023-02-19T15:13:05;17.40;99.90
29917;DHT22;16786;49.466;11.068;2023-02-19T15:15:35;17.80;99.90
29917;DHT22;16786;49.466;11.068;2023-02-19T15:18:04;17.80;99.90
29917;DHT22;16786;49.466;11.068;2023-02-19T15:20:35;18.80;99.90
29917;DHT22;16786;49.466;11.068;2023-02-19T15:23:05;19.20;99.90
29917;DHT22;16786;49.466;11.068;2023-02-19T15:25:35;17.20;99.90
29917;DHT22;16786;49.466;11.068;2023-02-19T15:33:25;13.00;99.90
29917;DHT22;16786;49.466;11.068;2023-02-19T15:35:58;12.30;99.90
29917;DHT22;16786;49.466;11.068;2023-02-19T15:38:27;11.50;99.90
29917;DHT22;16786;49.466;11.068;2023-02-19T15:40:54;11.10;99.90
29917;DHT22;16786;49.466;11.068;2023-02-19T15:43:39;10.90;99.90
29917;DHT22;16786;49.466;11.068;2023-02-19T15:46:17;10.70;99.90
29917;DHT22;16786;49.466;11.068;2023-02-19T15:48:57;10.50;99.90
29917;DHT22;16786;49.466;11.068;2023-02-19T15:51:35;10.50;99.90
29917;DHT22;16786;49.466;11.068;2023-02-19T15:54:18;10.40;99.90
29917;DHT22;16786;49.466;11.068;2023-02-19T15:56:54;10.20;99.90
29917;DHT22;16786;49.466;11.068;2023-02-19T15:59:43;10.10;99.90
29917;DHT22;16786;49.466;11.068;2023-02-19T16:02:13;10.10;99.90
29917;DHT22;16786;49.466;11.068;2023-02-19T16:04:44;9.80;99.90
29917;DHT22;16786;49.466;11.068;2023-02-19T16:07:29;9.90;99.90
29917;DHT22;16786;49.466;11.068;2023-02-19T16:12:59;9.80;99.90
29917;DHT22;16786;49.466;11.068;2023-02-19T16:15:30;9.70;99.90
29917;DHT22;16786;49.466;11.068;2023-02-19T16:17:58;9.60;99.90
29917;DHT22;16786;49.466;11.068;2023-02-19T16:20:29;9.50;99.90
29917;DHT22;16786;49.466;11.068;2023-02-19T16:23:12;9.50;99.90
29917;DHT22;16786;49.466;11.068;2023-02-19T16:25:42;9.50;99.90
29917;DHT22;16786;49.466;11.068;2023-02-19T16:28:24;9.40;99.90
29917;DHT22;16786;49.466;11.068;2023-02-19T16:31:03;9.30;99.90
29917;DHT22;16786;49.466;11.068;2023-02-19T16:33:35;9.30;99.90
29917;DHT22;16786;49.466;11.068;2023-02-19T16:36:16;9.30;99.90
29917;DHT22;16786;49.466;11.068;2023-02-19T16:41:29;9.20;99.90
29917;DHT22;16786;49.466;11.068;2023-02-19T16:43:57;9.10;99.90
29917;DHT22;16786;49.466;11.068;2023-02-19T16:46:24;9.00;99.90
29917;DHT22;16786;49.466;11.068;2023-02-19T16:48:53;8.90;99.90
29917;DHT22;16786;49.466;11.068;2023-02-19T16:51:25;8.80;99.90
29917;DHT22;16786;49.466;11.068;2023-02-19T16:53:53;8.70;99.90
29917;DHT22;16786;49.466;11.068;2023-02-19T16:56:24;8.70;99.90
29917;DHT22;16786;49.466;11.068;2023-02-19T16:58:51;8.60;99.90
29917;DHT22;16786;49.466;11.068;2023-02-19T17:01:19;8.60;99.90
29917;DHT22;16786;49.466;11.068;2023-02-19T17:03:47;8.50;99.90
29917;DHT22;16786;49.466;11.068;2023-02-19T17:06:15;8.50;99.90
29917;DHT22;16786;49.466;11.068;2023-02-19T17:08:43;8.50;99.90
29917;DHT22;16786;49.466;11.068;2023-02-19T17:11:13;8.50;99.90
29917;DHT22;16786;49.466;11.068;2023-02-19T17:13:41;8.60;99.90
29917;DHT22;16786;49.466;11.068;2023-02-19T17:16:25;8.60;99.90
29917;DHT22;16786;49.466;11.068;2023-02-19T17:18:54;8.60;99.90
29917;DHT22;16786;49.466;11.068;2023-02-19T17:21:27;8.60;99.90
29917;DHT22;16786;49.466;11.068;2023-02-19T17:23:55;8.60;99.90
29917;DHT22;16786;49.466;11.068;2023-02-19T17:26:27;8.60;99.90
29917;DHT22;16786;49.466;11.068;2023-02-19T17:28:56;8.70;99.90
29917;DHT22;16786;49.466;11.068;2023-02-19T17:31:23;8.70;99.90
29917;DHT22;16786;49.466;11.068;2023-02-19T17:33:51;8.70;99.90
29917;DHT22;16786;49.466;11.068;2023-02-19T17:36:22;8.70;99.90
29917;DHT22;16786;49.466;11.068;2023-02-19T17:38:49;8.70;99.90
29917;DHT22;16786;49.466;11.068;2023-02-19T17:41:17;8.70;99.90
29917;DHT22;16786;49.466;11.068;2023-02-19T17:43:44;8.70;99.90
29917;DHT22;16786;49.466;11.068;2023-02-19T17:46:17;8.70;99.90
29917;DHT22;16786;49.466;11.068;2023-02-19T17:48:45;8.60;99.90
29917;DHT22;16786;49.466;11.068;2023-02-19T17:51:14;8.60;99.90
29917;DHT22;16786;49.466;11.068;2023-02-19T17:53:42;8.50;99.90
29917;DHT22;16786;49.466;11.068;2023-02-19T17:56:14;8.70;99.90